Capitol Logistics 2115

Operating for AJT



KAUS
Austin-Bergstrom International Airport
Austin, Texas
KCVG
Cincinnati/Northern Kentucky International Airport
Covington, Kentucky

Activity Log

Date Flight Route Aircraft Duration
01/05/2022 CPX2115 ILEXY3 ZENZI LFK ELD KM24I PXV SARGO3 B763 2h 29m
05/27/2021 CPX2115 ILEXY2 ZENZI LFK ELD KM24I PXV SARGO3 B763 2h 29m

Route Details

Aircraft Information
Group: Boeing Common
Types: B752,B762,B763
Route Data
Demand: L
Distance: 833nm
Duration: 1h 52m
Recm'd Route: ILEXY2 ZENZI LFK ELD KM24I PXV SARGO3
Origin Wx: KAUS 270653Z 00000KT 10SM CLR 20/18 A2998 RMK AO2 SLP141 T02000183 VISNO RWY17R
Dest. Wx: KCVG 270652Z 19004KT 10SM FEW060 15/15 A2980 RMK AO2 SLP085 T01500150 $
Notes:

Financial History
Total Freight: 111,459lbs
Average Load: 55,730lbs/flt
Fuel Used: 43,711lbs
Avg. Fuel Used: 21,856lbs/flt
Fuel Expense: $12,257
Avg. Fuel Expense: $6,129
Avg. Fuel Cost: $0.28/lbs
Total Gross Income: $249,121
Pilot Pay: $158
Total Expenses: $37,026
Total Revenue: $199,459
Average Revenue: $124,560.32